Time;durP1;ratioP1;P1;durP2;ratioP2;P2;SDS_P1;SDS_P2;PMS_P1;PMS_P2;Temp;Humidity;BMP_temperature;BMP_pressure;BME280_temperature;BME280_humidity;BME280_pressure;Samples;Min_cycle;Max_cycle;Signal;HPM_P1;HPM_P2
2022/03/30 00:00:13;;;;;;;4.80;3.87;;;9.80;99.90;9.20;100550.00;;;;5096006;28;20177;-67
2022/03/30 00:02:44;;;;;;;1.37;1.27;;;9.80;99.90;9.40;100545.00;;;;5112700;28;20215;-67
2022/03/30 00:05:15;;;;;;;3.87;3.53;;;9.80;99.90;9.40;100544.00;;;;5093552;28;20194;-67
2022/03/30 00:07:54;;;;;;;1.30;1.20;;;10.00;99.90;9.70;100552.00;;;;5096329;28;20188;-67
2022/03/30 00:10:28;;;;;;;3.37;3.03;;;10.00;99.90;9.20;100540.00;;;;5097040;28;20274;-69
2022/03/30 00:13:02;;;;;;;1.63;1.63;;;9.90;99.90;9.20;100545.00;;;;5095412;28;20220;-68
2022/03/30 00:15:34;;;;;;;1.70;1.47;;;9.80;99.90;9.30;100525.00;;;;5088909;28;20182;-68
2022/03/30 00:18:05;;;;;;;0.93;0.93;;;9.80;99.90;9.30;100549.00;;;;5077366;28;20193;-68
2022/03/30 00:20:39;;;;;;;7.80;4.30;;;9.80;99.90;9.00;100538.00;;;;5078970;28;20608;-68
2022/03/30 00:23:13;;;;;;;1.13;0.70;;;9.70;99.90;9.10;100536.00;;;;5112978;28;20193;-68
2022/03/30 00:25:44;;;;;;;1.40;1.30;;;9.70;99.90;9.10;100524.00;;;;5103942;28;20655;-68
2022/03/30 00:28:13;;;;;;;0.60;0.60;;;9.70;99.90;9.10;100538.00;;;;5109378;28;20188;-68
2022/03/30 00:30:45;;;;;;;4.40;1.27;;;9.70;99.90;9.00;100538.00;;;;5084970;28;20204;-68
2022/03/30 00:33:17;;;;;;;3.03;2.83;;;9.60;99.90;9.30;100532.00;;;;5113184;28;20671;-68
2022/03/30 00:35:43;;;;;;;3.07;2.90;;;9.60;99.90;9.20;100522.00;;;;5111444;28;20184;-68
2022/03/30 00:38:12;;;;;;;3.30;2.10;;;9.70;99.90;9.30;100527.00;;;;5111796;28;20182;-69
2022/03/30 00:40:42;;;;;;;1.23;1.23;;;9.70;99.90;9.20;100497.00;;;;5112535;28;20186;-68
2022/03/30 00:43:13;;;;;;;0.30;0.30;;;9.70;99.90;10.10;100541.00;;;;5113344;28;20195;-68
2022/03/30 00:45:42;;;;;;;1.80;1.53;;;10.00;99.90;10.00;100533.00;;;;5112229;28;20187;-68
2022/03/30 00:48:11;;;;;;;1.07;1.07;;;10.00;99.90;9.60;100542.00;;;;5092470;28;20261;-68
2022/03/30 00:50:40;;;;;;;3.40;3.23;;;10.00;99.90;9.70;100524.00;;;;5107644;28;20176;-69
2022/03/30 00:53:08;;;;;;;0.40;0.40;;;10.00;99.90;9.80;100482.00;;;;5092549;28;20266;-68
2022/03/30 00:55:37;;;;;;;2.67;2.47;;;10.00;99.90;9.80;100521.00;;;;5094524;28;20184;-68
2022/03/30 00:58:03;;;;;;;1.50;1.50;;;10.10;99.90;9.50;100526.00;;;;5110729;28;20188;-66
2022/03/30 01:00:34;;;;;;;2.67;2.47;;;9.90;99.90;9.10;100527.00;;;;5112896;28;20219;-67
2022/03/30 01:03:06;;;;;;;0.67;0.67;;;9.70;99.90;8.60;100500.00;;;;5113278;28;20188;-68
2022/03/30 01:05:31;;;;;;;1.80;1.80;;;9.40;99.90;9.20;100503.00;;;;5096132;28;20204;-68
2022/03/30 01:08:03;;;;;;;1.07;1.00;;;9.50;99.90;8.50;100476.00;;;;5114084;28;20180;-68
2022/03/30 01:10:37;;;;;;;2.30;2.10;;;9.40;99.90;8.60;100491.00;;;;5114030;28;20573;-68
2022/03/30 01:13:10;;;;;;;1.70;1.60;;;9.20;99.90;8.70;100486.00;;;;5112845;28;20287;-68
2022/03/30 01:15:40;;;;;;;0.90;0.90;;;9.30;99.90;8.70;100486.00;;;;5113300;28;20178;-67
2022/03/30 01:18:12;;;;;;;1.20;0.53;;;9.30;99.90;9.00;100484.00;;;;5095261;28;20527;-68
2022/03/30 01:20:38;;;;;;;1.33;1.23;;;9.30;99.90;8.70;100478.00;;;;5096219;28;20179;-67
2022/03/30 01:23:04;;;;;;;0.67;0.67;;;9.30;99.90;8.90;100477.00;;;;5111215;28;20189;-67
2022/03/30 01:25:33;;;;;;;1.43;1.43;;;9.30;99.90;8.90;100468.00;;;;5095270;28;20180;-67
2022/03/30 01:27:59;;;;;;;0.73;0.40;;;9.30;99.90;8.80;100470.00;;;;5093294;28;20180;-66
2022/03/30 01:33:18;;;;;;;2.27;0.97;;;9.40;99.90;8.90;100472.00;;;;5095229;28;20233;-66
2022/03/30 01:35:51;;;;;;;3.80;2.80;;;9.30;99.90;8.40;100463.00;;;;5111895;28;20196;-66
2022/03/30 01:38:23;;;;;;;2.90;2.70;;;9.20;99.90;8.40;100422.00;;;;5112178;28;20648;-66
2022/03/30 01:40:51;;;;;;;1.43;1.33;;;9.10;99.90;8.30;100430.00;;;;5094306;28;20600;-66
2022/03/30 01:43:25;;;;;;;0.27;0.27;;;9.10;99.90;8.50;100458.00;;;;5094652;28;20196;-66
2022/03/30 01:45:57;;;;;;;2.57;2.37;;;9.10;99.90;8.40;100449.00;;;;5094403;28;20179;-66
2022/03/30 01:48:28;;;;;;;1.20;1.17;;;9.10;99.90;8.40;100443.00;;;;5110922;28;20188;-66
2022/03/30 01:50:59;;;;;;;2.67;2.30;;;9.20;99.90;8.40;100450.00;;;;5078361;28;20189;-66
2022/03/30 01:53:34;;;;;;;6.10;3.20;;;9.10;99.90;8.30;100430.00;;;;5111083;28;20219;-66
2022/03/30 01:56:02;;;;;;;1.80;0.90;;;9.10;99.90;8.40;100441.00;;;;5081194;28;20204;-67
2022/03/30 01:58:36;;;;;;;3.90;3.43;;;9.20;99.90;8.20;100430.00;;;;5091635;28;20181;-67
2022/03/30 02:01:09;;;;;;;3.50;2.87;;;9.00;99.90;8.60;100432.00;;;;5061256;28;20640;-68
2022/03/30 02:03:37;;;;;;;2.93;2.13;;;9.20;99.90;8.30;100426.00;;;;5087166;28;20284;-67
2022/03/30 02:06:12;;;;;;;1.60;1.50;;;9.10;99.90;8.30;100431.00;;;;5075038;28;20276;-67
2022/03/30 02:08:43;;;;;;;5.07;3.03;;;9.00;99.90;8.10;100419.00;;;;5087482;28;20178;-67
2022/03/30 02:11:12;;;;;;;2.90;2.13;;;9.00;99.90;8.40;100420.00;;;;5053952;28;20181;-68
2022/03/30 02:13:43;;;;;;;6.47;4.60;;;9.00;99.90;8.10;100425.00;;;;5079806;28;20206;-67
2022/03/30 02:16:16;;;;;;;0.90;0.90;;;8.90;99.90;8.10;100409.00;;;;5067200;28;20234;-67
2022/03/30 02:18:51;;;;;;;4.53;3.97;;;8.90;99.90;8.00;100430.00;;;;5077643;28;20271;-67
2022/03/30 02:21:26;;;;;;;1.20;1.20;;;8.90;99.90;8.50;100417.00;;;;5087812;28;20257;-68
2022/03/30 02:23:57;;;;;;;12.90;4.57;;;9.00;99.90;8.20;100404.00;;;;5087970;28;20210;-68
2022/03/30 02:26:30;;;;;;;2.83;1.70;;;9.00;99.90;8.10;100409.00;;;;5090605;28;20185;-68
2022/03/30 02:29:04;;;;;;;2.30;2.10;;;8.90;99.90;8.20;100409.00;;;;5087992;28;20295;-68
2022/03/30 02:31:38;;;;;;;1.13;1.13;;;8.90;99.90;8.20;100409.00;;;;5056472;28;20192;-68
2022/03/30 02:34:11;;;;;;;5.10;1.80;;;9.00;99.90;8.40;100418.00;;;;5088860;28;20180;-69
2022/03/30 02:36:45;;;;;;;1.03;1.03;;;9.00;99.90;8.50;100371.00;;;;5072701;28;20260;-68
2022/03/30 02:39:15;;;;;;;0.70;0.70;;;9.10;99.90;8.40;100399.00;;;;5072184;28;20318;-68
2022/03/30 02:41:49;;;;;;;3.80;1.57;;;9.00;99.90;8.90;100382.00;;;;5088694;28;20177;-68
2022/03/30 02:44:25;;;;;;;1.47;1.37;;;9.20;99.90;8.50;100398.00;;;;5091545;28;20200;-68
2022/03/30 02:47:01;;;;;;;0.50;0.50;;;9.20;99.90;8.70;100396.00;;;;5090953;28;20196;-68
2022/03/30 02:49:35;;;;;;;1.03;0.50;;;9.20;99.90;8.30;100342.00;;;;5072714;28;20206;-68
2022/03/30 02:52:07;;;;;;;2.17;2.07;;;9.20;99.90;8.30;100399.00;;;;5091637;28;20217;-68
2022/03/30 02:54:38;;;;;;;1.73;1.73;;;9.10;99.90;8.40;100392.00;;;;5089975;28;20195;-67
2022/03/30 02:57:12;;;;;;;1.10;0.97;;;9.10;99.90;8.60;100394.00;;;;5084955;28;20220;-67
2022/03/30 02:59:43;;;;;;;2.10;1.80;;;9.20;99.90;8.80;100391.00;;;;5069691;28;20262;-67
2022/03/30 03:02:15;;;;;;;3.97;2.40;;;9.20;99.90;8.50;100384.00;;;;5063265;28;20250;-68
2022/03/30 03:04:49;;;;;;;2.67;2.10;;;9.20;99.90;8.50;100390.00;;;;5086204;28;20185;-68
2022/03/30 03:07:22;;;;;;;0.73;0.73;;;9.10;99.90;8.30;100394.00;;;;5076774;28;20182;-67
2022/03/30 03:09:56;;;;;;;0.63;0.63;;;9.00;99.90;8.30;100338.00;;;;5065212;28;20192;-67
2022/03/30 03:12:27;;;;;;;3.13;2.77;;;9.00;99.90;8.40;100384.00;;;;5089980;28;20236;-68
2022/03/30 03:15:01;;;;;;;2.73;1.80;;;9.10;99.90;8.00;100370.00;;;;5089572;28;20177;-67
2022/03/30 03:17:35;;;;;;;2.63;2.43;;;8.90;99.90;8.30;100372.00;;;;5091719;28;20185;-67
2022/03/30 03:20:07;;;;;;;0.43;0.43;;;8.90;99.90;8.20;100385.00;;;;5092405;28;20265;-67
2022/03/30 03:22:43;;;;;;;4.67;3.50;;;8.90;99.90;8.10;100392.00;;;;5095490;28;20192;-67
2022/03/30 03:25:14;;;;;;;4.17;3.77;;;8.90;99.90;7.70;100385.00;;;;5092870;28;20245;-67
2022/03/30 03:27:48;;;;;;;3.90;3.53;;;8.70;99.90;7.90;100375.00;;;;5110161;28;20184;-68
2022/03/30 03:30:20;;;;;;;1.40;1.13;;;8.70;99.90;7.90;100385.00;;;;5093260;28;20644;-67
2022/03/30 03:32:52;;;;;;;3.47;2.37;;;8.60;99.90;7.80;100377.00;;;;5089888;28;20714;-66
2022/03/30 03:35:23;;;;;;;3.40;2.93;;;8.60;99.90;7.80;100367.00;;;;5093772;28;20196;-67
2022/03/30 03:37:55;;;;;;;1.50;1.40;;;8.60;99.90;7.80;100375.00;;;;5072271;28;20524;-67
2022/03/30 03:40:30;;;;;;;7.93;2.83;;;8.50;99.90;7.80;100377.00;;;;5073748;28;20197;-67
2022/03/30 03:43:04;;;;;;;3.13;2.70;;;8.60;99.90;7.80;100361.00;;;;5093267;28;20557;-67
2022/03/30 03:45:36;;;;;;;2.53;2.43;;;8.60;99.90;8.10;100374.00;;;;5091732;28;20171;-68
2022/03/30 03:48:10;;;;;;;0.40;0.40;;;8.70;99.90;8.10;100359.00;;;;5089850;28;20248;-68
2022/03/30 03:50:39;;;;;;;2.20;2.00;;;8.70;99.90;8.00;100359.00;;;;5092581;28;20184;-68
2022/03/30 03:53:10;;;;;;;4.40;4.20;;;8.70;99.90;8.30;100370.00;;;;5075391;28;20212;-68
2022/03/30 03:55:39;;;;;;;1.03;1.03;;;8.80;99.90;8.00;100364.00;;;;5091847;28;20189;-67
2022/03/30 03:58:09;;;;;;;0.97;0.97;;;8.80;99.90;8.00;100367.00;;;;5089819;28;20548;-68
2022/03/30 04:00:40;;;;;;;1.03;0.93;;;8.70;99.90;7.60;100380.00;;;;5082147;28;20186;-67
2022/03/30 04:03:12;;;;;;;5.83;3.97;;;8.60;99.90;7.80;100371.00;;;;5081020;28;20413;-67
2022/03/30 04:05:40;;;;;;;6.27;3.00;;;8.60;99.90;7.70;100373.00;;;;5075211;28;20665;-68
2022/03/30 04:08:12;;;;;;;2.27;2.17;;;8.50;99.90;7.60;100371.00;;;;5091781;28;20209;-68
2022/03/30 04:10:41;;;;;;;1.37;1.37;;;8.40;99.90;7.60;100364.00;;;;5071787;28;20207;-68
2022/03/30 04:13:14;;;;;;;2.13;1.93;;;8.40;99.90;7.30;100365.00;;;;5070929;28;20201;-68
2022/03/30 04:15:40;;;;;;;2.20;2.00;;;8.30;99.90;7.70;100359.00;;;;5082474;28;20185;-68
2022/03/30 04:18:09;;;;;;;4.43;2.10;;;8.40;99.90;7.40;100368.00;;;;5071758;28;20242;-67
2022/03/30 04:20:36;;;;;;;0.30;0.30;;;8.30;99.90;7.70;100366.00;;;;5088622;28;20192;-68
2022/03/30 04:23:04;;;;;;;1.77;1.67;;;8.30;99.90;7.80;100332.00;;;;5060015;28;20195;-67
2022/03/30 04:25:36;;;;;;;3.73;3.50;;;8.40;99.90;7.60;100360.00;;;;5066076;28;20243;-68
2022/03/30 04:28:02;;;;;;;2.20;2.00;;;8.40;99.90;7.60;100363.00;;;;5089429;28;20924;-68
2022/03/30 04:30:34;;;;;;;0.93;0.93;;;8.30;99.90;7.60;100359.00;;;;5057277;28;20196;-68
2022/03/30 04:33:05;;;;;;;2.83;2.10;;;8.30;99.90;7.50;100352.00;;;;5062652;28;20586;-68
2022/03/30 04:35:34;;;;;;;1.80;1.70;;;8.20;99.90;7.70;100362.00;;;;5072102;28;20188;-68
2022/03/30 04:38:08;;;;;;;2.20;1.83;;;8.30;99.90;7.60;100351.00;;;;5087879;28;20598;-68
2022/03/30 04:40:38;;;;;;;1.13;1.03;;;8.30;99.90;7.50;100349.00;;;;5059510;28;20272;-68
2022/03/30 04:43:10;;;;;;;0.73;0.73;;;8.30;99.90;7.50;100350.00;;;;5068454;28;20252;-68
2022/03/30 04:45:38;;;;;;;1.87;1.77;;;8.30;99.90;7.30;100345.00;;;;5091722;28;20173;-68
2022/03/30 04:48:04;;;;;;;1.07;1.07;;;8.20;99.90;7.50;100345.00;;;;5073906;28;20673;-67
2022/03/30 04:50:32;;;;;;;0.70;0.70;;;8.20;99.90;7.60;100347.00;;;;5072959;28;20341;-67
2022/03/30 04:53:00;;;;;;;0.93;0.73;;;8.20;99.90;7.40;100338.00;;;;5054728;28;20197;-67
2022/03/30 04:55:29;;;;;;;3.63;3.43;;;8.20;99.90;7.60;100350.00;;;;5086087;28;20648;-68
2022/03/30 04:57:57;;;;;;;1.20;1.20;;;8.30;99.90;7.40;100338.00;;;;5074281;28;20200;-67
2022/03/30 05:00:31;;;;;;;0.60;0.60;;;8.20;99.90;7.50;100337.00;;;;5091152;28;20185;-68
2022/03/30 05:02:59;;;;;;;1.40;1.10;;;8.20;99.90;7.40;100334.00;;;;5090611;28;20188;-67
2022/03/30 05:05:31;;;;;;;2.13;2.03;;;8.20;99.90;7.20;100330.00;;;;5088064;28;20194;-66
2022/03/30 05:08:05;;;;;;;0.73;0.67;;;8.10;99.90;7.20;100336.00;;;;5054539;28;20557;-67
2022/03/30 05:10:39;;;;;;;1.00;0.70;;;8.00;99.90;7.40;100335.00;;;;5071267;28;20192;-67
2022/03/30 05:13:08;;;;;;;2.27;2.17;;;8.00;99.90;7.20;100335.00;;;;5079648;28;20701;-67
2022/03/30 05:15:39;;;;;;;1.37;1.37;;;8.00;99.90;7.50;100341.00;;;;5077066;28;20192;-66
2022/03/30 05:18:11;;;;;;;3.87;1.10;;;8.10;99.90;7.40;100285.00;;;;5074457;28;20229;-67
2022/03/30 05:20:46;;;;;;;2.43;2.23;;;8.10;99.90;7.30;100339.00;;;;5091355;28;20197;-67
2022/03/30 05:23:21;;;;;;;1.43;1.37;;;8.00;99.90;7.00;100333.00;;;;5075204;28;20188;-67
2022/03/30 05:25:47;;;;;;;10.33;3.00;;;7.90;99.90;7.00;100330.00;;;;5085747;28;20194;-67
2022/03/30 05:28:19;;;;;;;4.17;1.97;;;7.90;99.90;7.10;100334.00;;;;5077309;28;20187;-68
2022/03/30 05:30:45;;;;;;;1.60;1.50;;;7.90;99.90;7.30;100333.00;;;;5055021;28;20210;-67
2022/03/30 05:33:16;;;;;;;1.77;1.67;;;8.00;99.90;7.50;100335.00;;;;5075455;28;20219;-68
2022/03/30 05:35:45;;;;;;;4.80;2.27;;;8.00;99.90;7.20;100325.00;;;;5091035;28;20179;-67
2022/03/30 05:38:10;;;;;;;7.67;4.27;;;8.00;99.90;7.10;100325.00;;;;5082026;28;20551;-68
2022/03/30 05:40:41;;;;;;;3.67;3.33;;;8.00;99.90;7.00;100335.00;;;;5076181;28;20177;-67
2022/03/30 05:43:10;;;;;;;5.53;4.30;;;8.00;99.90;7.40;100343.00;;;;5089405;28;20175;-68
2022/03/30 05:45:39;;;;;;;0.93;0.83;;;8.00;99.90;7.40;100345.00;;;;5091014;28;20177;-68
2022/03/30 05:48:10;;;;;;;4.60;4.07;;;8.10;99.90;7.20;100337.00;;;;5107263;28;20184;-68
2022/03/30 05:50:39;;;;;;;1.03;1.03;;;8.10;99.90;7.30;100330.00;;;;5090557;28;20185;-68
2022/03/30 05:53:08;;;;;;;3.17;2.53;;;8.00;99.90;7.40;100332.00;;;;5074255;28;20225;-68
2022/03/30 05:55:40;;;;;;;4.00;2.43;;;8.10;99.90;7.40;100287.00;;;;5069342;28;20188;-68
2022/03/30 05:58:11;;;;;;;2.67;2.37;;;8.10;99.90;7.30;100334.00;;;;5071930;28;20190;-69
2022/03/30 06:00:38;;;;;;;2.77;2.67;;;8.00;99.90;7.00;100323.00;;;;5093217;28;20184;-69
2022/03/30 06:03:10;;;;;;;7.10;2.30;;;8.00;99.90;7.20;100319.00;;;;5072556;28;20282;-68
2022/03/30 06:05:37;;;;;;;6.60;4.07;;;8.00;99.90;7.20;100319.00;;;;5090654;28;20190;-68
2022/03/30 06:08:05;;;;;;;3.83;3.53;;;8.00;99.90;7.00;100335.00;;;;5078870;28;20279;-68
2022/03/30 06:10:34;;;;;;;0.83;0.80;;;7.90;99.90;7.40;100333.00;;;;5068132;28;20801;-67
2022/03/30 06:13:03;;;;;;;2.07;1.90;;;8.00;99.90;7.50;100335.00;;;;5065545;28;20206;-68
2022/03/30 06:15:35;;;;;;;5.97;3.17;;;8.10;99.90;7.10;100333.00;;;;5091368;28;20155;-67
2022/03/30 06:18:10;;;;;;;5.53;3.67;;;8.00;99.90;7.00;100291.00;;;;5086728;28;20199;-67
2022/03/30 06:20:44;;;;;;;1.77;1.63;;;7.90;99.90;7.30;100333.00;;;;5070490;28;20234;-67
2022/03/30 06:23:14;;;;;;;3.73;3.03;;;7.90;99.90;7.20;100336.00;;;;5064625;28;20195;-67
2022/03/30 06:25:43;;;;;;;1.20;1.20;;;8.10;99.90;7.80;100340.00;;;;5073150;28;20192;-67
2022/03/30 06:28:14;;;;;;;3.00;2.47;;;8.40;99.90;7.70;100337.00;;;;5089237;28;20654;-68
2022/03/30 06:30:45;;;;;;;2.37;2.07;;;8.30;99.90;7.50;100348.00;;;;5073381;28;20179;-67
2022/03/30 06:33:21;;;;;;;1.07;1.07;;;8.30;99.90;7.40;100298.00;;;;5087980;28;20304;-68
2022/03/30 06:35:51;;;;;;;1.83;1.73;;;8.20;99.90;7.90;100349.00;;;;5073716;28;20644;-67
2022/03/30 06:38:19;;;;;;;0.50;0.50;;;8.40;99.90;7.80;100347.00;;;;5069608;28;20203;-66
2022/03/30 06:40:50;;;;;;;5.80;3.93;;;8.40;99.90;7.80;100347.00;;;;5065725;28;20189;-67
2022/03/30 06:43:18;;;;;;;3.03;2.73;;;8.50;99.90;7.20;100348.00;;;;5075410;28;20189;-66
2022/03/30 06:45:50;;;;;;;6.13;4.43;;;8.20;99.90;7.30;100336.00;;;;5072299;28;20187;-67
2022/03/30 06:48:19;;;;;;;6.50;3.17;;;8.20;99.90;7.70;100339.00;;;;5088913;28;20188;-67
2022/03/30 06:50:50;;;;;;;5.07;3.83;;;8.30;99.90;7.30;100351.00;;;;5088961;28;20276;-67
2022/03/30 06:53:19;;;;;;;8.33;6.07;;;8.40;99.90;7.00;100351.00;;;;5073593;28;20557;-66
2022/03/30 06:55:52;;;;;;;0.50;0.50;;;8.10;99.90;7.40;100351.00;;;;5092426;28;20194;-67
2022/03/30 06:58:22;;;;;;;4.63;2.20;;;8.10;99.90;7.70;100364.00;;;;5091417;28;20292;-67
2022/03/30 07:00:52;;;;;;;0.60;0.60;;;8.40;99.90;8.00;100367.00;;;;5072677;28;20178;-67
2022/03/30 07:03:18;;;;;;;3.50;3.17;;;8.60;99.90;7.70;100362.00;;;;5075661;28;20199;-67
2022/03/30 07:05:49;;;;;;;2.53;2.40;;;8.50;99.90;7.70;100358.00;;;;5079688;28;20698;-67
2022/03/30 07:11:12;;;;;;;8.20;6.07;;;8.80;99.90;8.50;100363.00;;;;5093285;28;20203;-68
2022/03/30 07:13:44;;;;;;;4.30;3.17;;;9.20;99.90;7.90;100369.00;;;;5075701;28;20201;-68
2022/03/30 07:16:21;;;;;;;10.53;6.93;;;8.90;99.90;7.90;100381.00;;;;5077609;28;20186;-68
2022/03/30 07:18:55;;;;;;;7.77;5.63;;;8.80;99.90;7.90;100374.00;;;;5093775;28;20197;-68
2022/03/30 07:21:49;;;;;;;5.80;4.70;;;8.80;99.90;7.70;100379.00;;;;5093836;28;20195;-68
2022/03/30 07:24:31;;;;;;;1.13;1.13;;;8.70;99.90;8.60;100376.00;;;;5081827;28;20254;-68
2022/03/30 07:27:02;;;;;;;3.33;2.97;;;9.00;99.90;9.40;100382.00;;;;5090138;28;20181;-69
2022/03/30 07:29:31;;;;;;;9.13;5.70;;;9.40;99.90;9.30;100392.00;;;;5092402;28;20592;-67
2022/03/30 07:32:09;;;;;;;1.17;1.07;;;9.60;99.90;8.90;100356.00;;;;5072795;28;20206;-68
2022/03/30 07:34:43;;;;;;;1.53;1.43;;;9.50;99.90;9.30;100383.00;;;;5057115;28;20205;-68
2022/03/30 07:37:15;;;;;;;2.27;2.07;;;9.70;99.90;9.60;100404.00;;;;5057531;28;20212;-67
2022/03/30 07:39:46;;;;;;;4.87;4.27;;;9.80;99.90;9.80;100402.00;;;;5085674;28;20637;-69
2022/03/30 07:42:18;;;;;;;5.60;3.93;;;9.90;99.90;9.60;100417.00;;;;5093098;28;20181;-68
2022/03/30 07:44:49;;;;;;;5.63;2.97;;;9.90;99.90;9.10;100400.00;;;;5090050;28;20644;-68
2022/03/30 07:47:21;;;;;;;1.57;1.47;;;9.70;99.90;8.70;100391.00;;;;5074672;28;20204;-68
2022/03/30 07:50:00;;;;;;;1.40;1.30;;;9.40;99.90;9.00;100403.00;;;;5092571;28;20277;-67
2022/03/30 07:52:33;;;;;;;4.83;3.17;;;9.60;99.90;8.70;100409.00;;;;5108977;28;20216;-69
2022/03/30 07:55:03;;;;;;;3.27;3.03;;;9.60;99.90;9.20;100385.00;;;;5109437;28;20540;-69
2022/03/30 07:57:39;;;;;;;3.27;2.97;;;9.50;99.90;10.40;100365.00;;;;5078730;28;20232;-69
2022/03/30 08:00:17;;;;;;;5.37;4.43;;;10.30;99.90;9.90;100414.00;;;;5093428;28;20178;-69
2022/03/30 08:02:49;;;;;;;9.30;5.17;;;10.40;99.90;9.80;100414.00;;;;5094535;28;20192;-68
2022/03/30 08:05:21;;;;;;;16.07;6.30;;;10.60;99.90;9.30;100401.00;;;;5092796;28;20767;-68
2022/03/30 08:07:52;;;;;;;4.60;2.47;;;10.20;99.90;10.00;100420.00;;;;5088233;28;20212;-68
2022/03/30 08:10:30;;;;;;;4.03;3.63;;;10.50;99.90;10.90;100429.00;;;;5073994;28;20181;-68
2022/03/30 08:13:07;;;;;;;2.33;1.50;;;10.90;99.90;12.70;100461.00;;;;5085544;28;20235;-69
2022/03/30 08:15:43;;;;;;;6.30;4.93;;;12.10;99.90;12.60;100494.00;;;;5090503;28;20187;-68
2022/03/30 08:18:17;;;;;;;5.67;3.93;;;12.50;99.90;12.60;100511.00;;;;5072159;28;20242;-69
2022/03/30 08:23:43;;;;;;;6.13;2.67;;;12.60;99.90;10.60;100489.00;;;;5063999;28;20287;-64
2022/03/30 08:26:14;;;;;;;3.33;1.80;;;11.40;99.90;9.90;100476.00;;;;5092980;28;20189;-69
2022/03/30 08:28:50;;;;;;;3.00;2.70;;;10.70;99.90;10.90;100436.00;;;;5077265;28;20181;-68
2022/03/30 08:31:24;;;;;;;12.73;1.90;;;10.90;99.90;10.30;100487.00;;;;5109628;28;20576;-70
2022/03/30 08:33:55;;;;;;;3.47;2.47;;;10.80;99.90;10.10;100467.00;;;;5110775;28;20652;-68
2022/03/30 08:36:33;;;;;;;4.73;3.37;;;10.50;99.90;9.20;100428.00;;;;5083317;28;20196;-69
2022/03/30 08:39:10;;;;;;;6.20;3.83;;;10.10;99.90;9.40;100439.00;;;;5104178;28;20202;-69
2022/03/30 08:41:43;;;;;;;0.43;0.43;;;10.00;99.90;10.50;100443.00;;;;5082442;28;20188;-70
2022/03/30 08:44:20;;;;;;;2.90;2.63;;;10.30;99.90;11.10;100463.00;;;;5080084;28;20182;-69
2022/03/30 08:46:57;;;;;;;2.73;2.27;;;10.90;99.90;10.90;100485.00;;;;5072769;28;20169;-68
2022/03/30 08:49:34;;;;;;;10.13;5.57;;;11.00;99.90;10.80;100490.00;;;;5056226;28;20198;-69
2022/03/30 08:52:10;;;;;;;3.30;1.70;;;10.80;99.90;10.60;100432.00;;;;5056618;28;20219;-70
2022/03/30 08:54:52;;;;;;;1.80;1.40;;;10.80;99.90;11.10;100468.00;;;;5072118;28;20232;-69
2022/03/30 08:57:26;;;;;;;3.37;1.87;;;11.00;99.90;10.80;100492.00;;;;5090435;28;20185;-70
2022/03/30 09:00:05;;;;;;;6.13;4.37;;;11.00;99.90;11.00;100487.00;;;;5088724;28;20651;-70
2022/03/30 09:02:41;;;;;;;4.23;2.30;;;11.20;99.90;11.10;100497.00;;;;5089696;28;20558;-70
2022/03/30 09:05:35;;;;;;;3.93;3.00;;;11.30;99.90;11.20;100497.00;;;;5076105;28;20192;-71
2022/03/30 09:08:18;;;;;;;7.73;4.50;;;11.30;99.90;10.50;100482.00;;;;5090414;28;20189;-66
2022/03/30 09:10:53;;;;;;;3.27;1.63;;;11.10;99.90;10.80;100492.00;;;;5074789;28;20559;-69
2022/03/30 09:13:19;;;;;;;0.20;0.20;;;11.10;99.90;11.30;100489.00;;;;5092643;28;20234;-70
2022/03/30 09:15:56;;;;;;;3.73;3.43;;;11.20;99.90;10.60;100474.00;;;;5070888;28;20197;-68
2022/03/30 09:18:24;;;;;;;5.63;3.97;;;10.90;99.90;10.50;100476.00;;;;5070483;28;20271;-67
2022/03/30 09:20:57;;;;;;;5.47;3.53;;;10.90;99.90;10.50;100465.00;;;;5071971;28;20279;-65
2022/03/30 09:23:27;;;;;;;2.57;2.17;;;10.90;99.90;11.10;100479.00;;;;5081741;28;20584;-71
2022/03/30 09:26:02;;;;;;;2.53;2.33;;;11.10;99.90;11.30;100492.00;;;;5091335;28;20193;-71
2022/03/30 09:28:38;;;;;;;1.47;1.03;;;11.30;99.90;11.10;100497.00;;;;5073969;28;20189;-70
2022/03/30 09:31:17;;;;;;;6.27;3.43;;;11.40;99.90;10.90;100489.00;;;;5088321;28;20209;-71
2022/03/30 09:33:48;;;;;;;0.73;0.73;;;11.40;99.90;11.00;100482.00;;;;5077098;28;20196;-71
2022/03/30 09:36:33;;;;;;;1.93;1.80;;;11.30;99.90;12.20;100459.00;;;;5074147;28;20586;-71
2022/03/30 09:39:03;;;;;;;4.20;2.60;;;11.80;99.90;12.50;100494.00;;;;5086985;28;20824;-71
2022/03/30 09:41:50;;;;;;;6.67;3.47;;;12.20;99.90;11.00;100484.00;;;;5083056;28;20569;-71
2022/03/30 09:44:22;;;;;;;1.13;1.00;;;11.60;99.90;11.30;100479.00;;;;5070993;28;20196;-71
2022/03/30 09:47:05;;;;;;;1.93;1.47;;;11.40;99.90;12.90;100498.00;;;;5086617;28;20524;-71
2022/03/30 09:49:52;;;;;;;4.77;3.47;;;12.20;99.90;12.00;100500.00;;;;5089789;28;20631;-69
2022/03/30 09:52:28;;;;;;;6.67;4.00;;;12.30;99.90;12.70;100497.00;;;;5090194;28;20231;-70
2022/03/30 09:55:02;;;;;;;5.07;4.17;;;12.60;99.90;12.60;100511.00;;;;5089710;28;20186;-71
2022/03/30 09:57:34;;;;;;;7.77;4.77;;;12.70;99.90;13.20;100507.00;;;;5090357;28;20211;-70
2022/03/30 10:00:18;;;;;;;6.07;3.63;;;13.10;99.90;12.70;100529.00;;;;5086374;28;20211;-70
2022/03/30 10:02:52;;;;;;;5.60;1.90;;;13.10;99.90;13.80;100528.00;;;;5082588;28;20864;-69
2022/03/30 10:05:21;;;;;;;4.00;2.87;;;13.40;99.90;13.10;100529.00;;;;5077960;28;20188;-69
2022/03/30 10:07:55;;;;;;;3.13;2.93;;;13.30;99.90;12.50;100496.00;;;;5086842;28;20708;-68
2022/03/30 10:10:26;;;;;;;1.00;1.00;;;12.70;99.90;12.40;100531.00;;;;5076214;28;20187;-69
2022/03/30 10:13:00;;;;;;;6.70;4.10;;;12.70;99.90;13.10;100526.00;;;;5057519;28;20220;-69
2022/03/30 10:15:26;;;;;;;2.67;2.20;;;12.80;99.90;12.80;100534.00;;;;5072394;28;20243;-69
2022/03/30 10:18:00;;;;;;;4.00;3.67;;;12.70;99.90;11.80;100512.00;;;;5072212;28;20190;-69
2022/03/30 10:20:31;;;;;;;5.90;2.53;;;12.30;99.90;12.40;100533.00;;;;5089061;28;20708;-69
2022/03/30 10:33:28;;;;;;;4.50;3.90;;;12.70;99.90;12.30;100506.00;;;;5104975;27;1316283;-70
2022/03/30 10:35:58;;;;;;;4.07;3.53;;;12.80;99.90;12.90;100501.00;;;;5123861;28;20243;-70
2022/03/30 10:38:24;;;;;;;3.30;1.77;;;12.90;99.90;14.00;100524.00;;;;5107295;28;20554;-71
2022/03/30 10:41:08;;;;;;;17.93;6.70;;;13.50;99.90;12.40;100513.00;;;;5097155;28;20552;-69
2022/03/30 10:43:34;;;;;;;2.67;0.97;;;13.10;99.90;13.50;100525.00;;;;5127873;28;20230;-69
2022/03/30 10:46:05;;;;;;;5.30;2.50;;;13.30;99.90;14.40;100532.00;;;;5110059;28;20187;-69
2022/03/30 10:48:31;;;;;;;3.00;2.60;;;13.90;99.90;14.80;100537.00;;;;5126026;28;20194;-69
2022/03/30 10:51:19;;;;;;;3.10;2.80;;;14.30;99.90;13.30;100430.00;;;;5116260;28;20200;-69
2022/03/30 10:53:53;;;;;;;0.17;0.17;;;14.40;99.90;14.30;100383.00;;;;5125502;28;20180;-69
2022/03/30 10:56:22;;;;;;;2.57;2.37;;;14.30;99.90;14.00;100427.00;;;;5101150;28;20643;-69
2022/03/30 10:59:12;;;;;;;0.10;0.10;;;14.40;99.90;14.40;100421.00;;;;5123037;28;20188;-69
2022/03/30 11:01:49;;;;;;;1.43;0.90;;;14.40;99.90;15.00;100395.00;;;;5128670;27;20201;-69
2022/03/30 11:04:25;;;;;;;3.87;3.33;;;14.90;99.90;13.10;100424.00;;;;5129129;28;20196;-70
2022/03/30 11:07:13;;;;;;;4.17;1.83;;;13.80;99.90;14.40;100371.00;;;;5118359;27;20185;-70
2022/03/30 11:10:27;;;;;;;2.83;2.63;;;14.20;99.90;13.80;100397.00;;;;5107170;28;20214;-70
2022/03/30 11:13:07;;;;;;;1.07;0.97;;;13.80;99.90;14.00;100364.00;;;;5116274;28;20206;-70
2022/03/30 11:16:11;;;;;;;3.37;2.67;;;13.90;99.90;13.90;100369.00;;;;5107973;28;20216;-71
2022/03/30 11:19:02;;;;;;;4.57;2.03;;;14.40;99.90;14.40;100401.00;;;;5106761;28;20197;-71
2022/03/30 11:21:41;;;;;;;2.23;2.13;;;14.10;99.90;15.50;100398.00;;;;5124173;28;20735;-71
2022/03/30 11:24:32;;;;;;;4.23;3.07;;;15.00;99.90;15.20;100397.00;;;;5107812;28;20554;-71
2022/03/30 11:27:10;;;;;;;5.53;4.93;;;15.30;99.90;14.80;100390.00;;;;5109088;28;20197;-71
2022/03/30 11:29:53;;;;;;;0.10;0.10;;;15.10;99.90;14.50;100351.00;;;;5108763;28;20220;-71
2022/03/30 11:32:28;;;;;;;0.87;0.43;;;14.50;99.90;15.70;100351.00;;;;5128296;28;20211;-71
2022/03/30 11:35:01;;;;;;;1.10;0.70;;;15.10;99.90;14.30;100386.00;;;;5127666;28;20216;-71
2022/03/30 11:38:22;;;;;;;6.80;2.93;;;15.00;99.90;13.00;100387.00;;;;5121218;27;20265;-72
2022/03/30 11:41:05;;;;;;;2.70;2.37;;;13.60;99.90;13.70;100378.00;;;;5090575;28;20192;-72